Terminal Aerodrome Forecast
Issued by NWS Melbourne, FL

Home | Current Version | Previous Version | Text Only | Print | Product List | Glossary On
Versions: 1 2 3 4 5 6 7 8 9 10 11 12 13 14 15
450
FTUS42 KMLB 192332
TAFDAB
TAF
KDAB 192332Z 2000/2024 06004KT P6SM FEW035 SCT250
     FM201800 07009KT P6SM FEW040 SCT250=

USA.gov is the U.S. government's official web portal to all federal, state and local government web resources and services.